KGUC

Gunnison-Crested Butte Regional Airport

Gunnison, Colorado, USA
METAR KGUC 191456Z AUTO 00000KT 10SM CLR 11/03 A3038 RMK AO2 SLP225 T01060033 51012
Observed Flight Rules
Aug-19 @ 14:56 UTC (42 minutes ago) Visual Flight Rules
Visibility Clouds
10 miles
  • Clear skies
Temperatures Readings
Current 11°C / 52°F
Dewpoint 3°C / 37°F
Humidity 58%
Altimeter 30.38" Hg
Pressure 1022.5 hPa
Elevation 2339
METAR KGUC 191456Z AUTO 00000KT 10SM CLR 11/03 A3038 RMK AO2 SLP225 T01060033 51012
Observed Flight Rules
Aug-19 @ 14:56 UTC
(42 minutes ago)
VFR
Clouds
  • Clear skies
Temperature Dewpoint
11°C / 52°F 3°C / 37°F
Humidity Altimeter Pressure
58% 30.38" Hg 1022.5 hPa